createdAt,value
2023-02-21T00:00:59.862Z,45.41
2023-02-21T00:02:04.070Z,45.41
2023-02-21T00:03:08.170Z,45.37
2023-02-21T00:04:12.253Z,45.42
2023-02-21T00:05:16.489Z,45.4
2023-02-21T00:06:20.892Z,45.39
2023-02-21T00:07:25.086Z,45.38
2023-02-21T00:08:29.193Z,45.38
2023-02-21T00:09:33.307Z,45.34
2023-02-21T00:10:37.574Z,45.36
2023-02-21T00:11:41.688Z,45.41
2023-02-21T00:12:45.776Z,45.46
2023-02-21T00:13:49.890Z,45.47
2023-02-21T00:14:54.017Z,45.44
2023-02-21T00:15:58.140Z,45.4
2023-02-21T00:17:02.264Z,45.4
2023-02-21T00:18:06.380Z,45.44
2023-02-21T00:19:10.564Z,45.48
2023-02-21T00:20:16.715Z,45.71
2023-02-21T00:21:22.049Z,45.56
2023-02-21T00:22:26.143Z,45.51
2023-02-21T00:23:30.237Z,45.47
2023-02-21T00:24:34.323Z,45.53
2023-02-21T00:25:38.418Z,45.53
2023-02-21T00:26:42.546Z,45.56
2023-02-21T00:27:46.651Z,45.6
2023-02-21T00:28:50.735Z,45.57
2023-02-21T00:29:54.831Z,45.59
2023-02-21T00:30:59.251Z,45.69
2023-02-21T00:32:03.421Z,45.73
2023-02-21T00:33:09.581Z,45.69
2023-02-21T00:34:13.715Z,45.71
2023-02-21T00:35:18.046Z,45.65
2023-02-21T00:36:22.182Z,45.75
2023-02-21T00:37:26.312Z,45.68
2023-02-21T00:38:30.451Z,45.71
2023-02-21T00:39:34.583Z,45.73
2023-02-21T00:40:38.678Z,45.78
2023-02-21T00:41:42.799Z,45.8
2023-02-21T00:42:46.910Z,45.75
2023-02-21T00:43:51.069Z,45.86
2023-02-21T00:44:55.204Z,45.81
2023-02-21T00:45:59.485Z,45.74
2023-02-21T00:47:03.591Z,45.8
2023-02-21T00:48:07.694Z,45.92
2023-02-21T00:49:11.814Z,45.88
2023-02-21T00:50:15.939Z,45.86
2023-02-21T00:51:20.036Z,46.18
2023-02-21T00:52:24.170Z,46.16
2023-02-21T00:53:28.257Z,46.01
2023-02-21T00:54:32.366Z,46.01
2023-02-21T00:55:36.462Z,45.97
2023-02-21T00:56:40.581Z,45.99
2023-02-21T00:57:44.727Z,46.06
2023-02-21T00:58:48.853Z,46.12
2023-02-21T00:59:52.959Z,46.23
2023-02-21T01:00:57.320Z,46.18
2023-02-21T01:02:01.415Z,46.13
2023-02-21T01:03:05.511Z,46.09
2023-02-21T01:04:09.727Z,46.23
2023-02-21T01:05:13.827Z,47.06
2023-02-21T01:06:17.924Z,46.96
2023-02-21T01:07:22.049Z,47.08
2023-02-21T01:08:26.145Z,46.68
2023-02-21T01:09:30.227Z,46.63
2023-02-21T01:10:34.317Z,46.37
2023-02-21T01:11:38.410Z,46.4
2023-02-21T01:12:42.538Z,46.54
2023-02-21T01:13:46.666Z,46.82
2023-02-21T01:14:50.760Z,46.53
2023-02-21T01:15:55.115Z,46.49
2023-02-21T01:17:14.538Z,46.43
2023-02-21T01:18:18.719Z,46.43
2023-02-21T01:19:22.817Z,46.37
2023-02-21T01:20:26.918Z,46.36
2023-02-21T01:21:31.020Z,46.4
2023-02-21T01:22:35.115Z,46.64
2023-02-21T01:23:39.234Z,46.56
2023-02-21T01:24:43.378Z,46.4
2023-02-21T01:25:47.509Z,46.59
2023-02-21T01:26:51.594Z,46.45
2023-02-21T01:27:55.679Z,46.45
2023-02-21T01:28:59.800Z,46.42
2023-02-21T01:30:04.265Z,46.52
2023-02-21T01:31:08.732Z,46.48
2023-02-21T01:32:13.052Z,46.66
2023-02-21T01:33:17.173Z,46.47
2023-02-21T01:34:21.294Z,46.77
2023-02-21T01:35:25.394Z,46.47
2023-02-21T01:36:29.486Z,46.49
2023-02-21T01:37:33.579Z,46.56
2023-02-21T01:38:37.767Z,46.42
2023-02-21T01:39:41.917Z,46.44
2023-02-21T01:40:46.013Z,46.49
2023-02-21T01:41:50.120Z,46.47
2023-02-21T01:42:54.223Z,46.39
2023-02-21T01:43:58.306Z,46.35
2023-02-21T01:45:02.426Z,46.47
2023-02-21T01:46:06.612Z,46.37
2023-02-21T01:47:10.810Z,46.37
2023-02-21T01:48:14.949Z,46.41
2023-02-21T01:49:19.065Z,46.46
2023-02-21T01:50:23.168Z,46.74
2023-02-21T01:51:27.293Z,46.59
2023-02-21T01:52:31.374Z,46.43
2023-02-21T01:53:35.484Z,46.51
2023-02-21T01:54:39.579Z,46.37
2023-02-21T01:55:43.719Z,46.42
2023-02-21T01:56:47.803Z,46.43
2023-02-21T01:57:51.892Z,46.42
2023-02-21T01:58:55.998Z,46.46
2023-02-21T02:00:00.125Z,46.42
2023-02-21T02:01:04.276Z,46.53
2023-02-21T02:02:08.381Z,46.57
2023-02-21T02:03:12.491Z,46.53
2023-02-21T02:04:16.796Z,46.39
2023-02-21T02:05:20.913Z,46.46
2023-02-21T02:06:25.014Z,46.34
2023-02-21T02:07:29.116Z,46.49
2023-02-21T02:08:33.223Z,46.37
2023-02-21T02:09:37.344Z,46.35
2023-02-21T02:10:41.450Z,46.4
2023-02-21T02:11:45.562Z,46.41
2023-02-21T02:12:49.639Z,46.43
2023-02-21T02:13:53.745Z,46.42
2023-02-21T02:14:57.833Z,46.37
2023-02-21T02:16:02.237Z,46.47
2023-02-21T02:17:06.350Z,46.41
2023-02-21T02:18:10.434Z,46.39
2023-02-21T02:19:14.653Z,46.33
2023-02-21T02:20:18.775Z,46.27
2023-02-21T02:21:22.869Z,46.45
2023-02-21T02:22:27.000Z,46.37
2023-02-21T02:23:31.081Z,46.64
2023-02-21T02:24:35.223Z,46.45
2023-02-21T02:25:39.299Z,46.41
2023-02-21T02:26:43.418Z,46.35
2023-02-21T02:27:47.557Z,46.35
2023-02-21T02:28:51.655Z,46.39
2023-02-21T02:29:55.768Z,46.35
2023-02-21T02:31:00.309Z,46.27
2023-02-21T02:32:04.918Z,46.32
2023-02-21T02:33:09.156Z,46.34
2023-02-21T02:34:13.270Z,46.32
2023-02-21T02:35:17.358Z,46.31
2023-02-21T02:36:21.506Z,46.31
2023-02-21T02:37:25.624Z,46.39
2023-02-21T02:38:29.746Z,46.43
2023-02-21T02:39:33.841Z,46.27
2023-02-21T02:40:37.941Z,46.24
2023-02-21T02:41:42.033Z,46.24
2023-02-21T02:42:46.140Z,46.29
2023-02-21T02:43:50.254Z,46.32
2023-02-21T02:44:54.364Z,46.32
2023-02-21T02:45:58.506Z,46.29
2023-02-21T02:47:02.624Z,46.26
2023-02-21T02:48:06.764Z,46.25
2023-02-21T02:49:10.864Z,46.3
2023-02-21T02:50:14.972Z,46.29
2023-02-21T02:51:19.534Z,46.38
2023-02-21T02:52:23.638Z,46.36
2023-02-21T02:53:27.748Z,46.36
2023-02-21T02:54:31.837Z,46.23
2023-02-21T02:55:35.949Z,46.27
2023-02-21T02:56:40.029Z,46.36
2023-02-21T02:57:44.217Z,46.38
2023-02-21T02:58:48.315Z,46.3
2023-02-21T02:59:52.420Z,46.28
2023-02-21T03:00:56.530Z,46.18
2023-02-21T03:02:00.879Z,46.2
2023-02-21T03:03:04.967Z,46.44
2023-02-21T03:04:09.193Z,46.35
2023-02-21T03:05:13.306Z,46.32
2023-02-21T03:06:17.403Z,46.3
2023-02-21T03:07:21.487Z,46.31
2023-02-21T03:08:25.584Z,46.38
2023-02-21T03:09:29.663Z,46.39
2023-02-21T03:10:33.754Z,46.36
2023-02-21T03:11:37.842Z,46.43
2023-02-21T03:12:41.936Z,46.41
2023-02-21T03:13:46.035Z,46.43
2023-02-21T03:14:50.143Z,46.45
2023-02-21T03:15:54.429Z,46.43
2023-02-21T03:16:58.566Z,46.45
2023-02-21T03:18:02.681Z,46.48
2023-02-21T03:19:06.772Z,46.5
2023-02-21T03:20:10.853Z,46.55
2023-02-21T03:21:15.967Z,46.53
2023-02-21T03:22:20.184Z,46.49
2023-02-21T03:23:24.298Z,46.56
2023-02-21T03:24:28.391Z,46.56
2023-02-21T03:25:32.504Z,46.61
2023-02-21T03:26:36.662Z,46.56
2023-02-21T03:27:40.786Z,46.5
2023-02-21T03:28:44.895Z,46.55
2023-02-21T03:29:49.152Z,46.58
2023-02-21T03:30:53.240Z,46.58
2023-02-21T03:31:57.761Z,46.52
2023-02-21T03:33:01.863Z,46.56
2023-02-21T03:34:05.960Z,46.53
2023-02-21T03:35:10.073Z,46.53
2023-02-21T03:36:14.158Z,46.61
2023-02-21T03:37:18.291Z,46.58
2023-02-21T03:38:22.511Z,46.48
2023-02-21T03:39:26.638Z,46.4
2023-02-21T03:40:30.816Z,46.37
2023-02-21T03:41:34.931Z,46.43
2023-02-21T03:42:39.070Z,46.46
2023-02-21T03:43:43.177Z,46.37
2023-02-21T03:44:47.304Z,46.42
2023-02-21T03:45:51.537Z,46.36
2023-02-21T03:46:55.823Z,46.31
2023-02-21T03:47:59.997Z,46.28
2023-02-21T03:49:04.114Z,46.35
2023-02-21T03:50:08.212Z,46.25
2023-02-21T03:51:12.509Z,46.26
2023-02-21T03:52:16.684Z,46.26
2023-02-21T03:53:20.805Z,46.19
2023-02-21T03:54:24.913Z,46.27
2023-02-21T03:55:29.037Z,46.18
2023-02-21T03:56:43.751Z,46.08
2023-02-21T03:57:47.965Z,46.04
2023-02-21T03:58:52.081Z,46.03
2023-02-21T03:59:56.186Z,46.06
2023-02-21T04:01:00.565Z,46.02
2023-02-21T04:02:04.891Z,46.05
2023-02-21T04:03:09.029Z,46.07
2023-02-21T04:04:13.140Z,46.08
2023-02-21T04:05:17.341Z,46.06
2023-02-21T04:06:21.469Z,46.09
2023-02-21T04:07:25.558Z,46.04
2023-02-21T04:08:29.648Z,46.11
2023-02-21T04:09:33.775Z,46.13
2023-02-21T04:10:53.591Z,46.14
2023-02-21T04:11:57.695Z,46.11
2023-02-21T04:13:01.804Z,46.13
2023-02-21T04:14:05.924Z,46.05
2023-02-21T04:15:10.089Z,45.96
2023-02-21T04:16:14.360Z,45.97
2023-02-21T04:17:18.443Z,45.96
2023-02-21T04:18:22.538Z,45.96
2023-02-21T04:19:26.627Z,45.94
2023-02-21T04:20:30.724Z,45.9
2023-02-21T04:21:34.837Z,45.85
2023-02-21T04:22:38.947Z,45.78
2023-02-21T04:23:43.062Z,45.75
2023-02-21T04:24:47.170Z,45.66
2023-02-21T04:25:51.301Z,45.71
2023-02-21T04:26:55.382Z,45.68
2023-02-21T04:27:59.518Z,45.7
2023-02-21T04:29:03.587Z,45.71
2023-02-21T04:30:08.175Z,45.76
2023-02-21T04:31:12.399Z,45.74
2023-02-21T04:32:16.919Z,45.72
2023-02-21T04:33:21.031Z,45.81
2023-02-21T04:34:25.131Z,45.83
2023-02-21T04:35:29.208Z,45.85
2023-02-21T04:36:33.360Z,45.83
2023-02-21T04:37:37.460Z,45.88
2023-02-21T04:38:41.560Z,45.92
2023-02-21T04:39:45.666Z,45.88
2023-02-21T04:40:49.743Z,45.89
2023-02-21T04:41:53.853Z,45.78
2023-02-21T04:42:57.960Z,45.71
2023-02-21T04:44:02.080Z,45.7
2023-02-21T04:45:06.174Z,45.63
2023-02-21T04:46:10.507Z,45.7
2023-02-21T04:47:14.648Z,45.66
2023-02-21T04:48:18.767Z,45.58
2023-02-21T04:49:22.870Z,45.5
2023-02-21T04:50:26.955Z,45.67
2023-02-21T04:51:31.058Z,46.02
2023-02-21T04:52:35.263Z,46.07
2023-02-21T04:53:39.365Z,45.89
2023-02-21T04:54:43.465Z,45.89
2023-02-21T04:55:47.570Z,45.85
2023-02-21T04:56:51.880Z,45.87
2023-02-21T04:57:56.004Z,45.91
2023-02-21T04:59:00.117Z,45.9
2023-02-21T05:00:04.225Z,45.87
2023-02-21T05:01:08.493Z,45.94
2023-02-21T05:02:12.691Z,45.91
2023-02-21T05:03:16.815Z,45.96
2023-02-21T05:04:21.011Z,45.99
2023-02-21T05:05:25.324Z,46.09
2023-02-21T05:06:29.458Z,46.15
2023-02-21T05:07:33.545Z,46.17
2023-02-21T05:08:37.685Z,46.24
2023-02-21T05:09:41.805Z,46.19
2023-02-21T05:10:47.803Z,46.2
2023-02-21T05:11:51.923Z,46.17
2023-02-21T05:12:56.023Z,46.19
2023-02-21T05:14:00.116Z,46.25
2023-02-21T05:15:04.220Z,46.26
2023-02-21T05:16:08.305Z,46.22
2023-02-21T05:17:12.410Z,46.21
2023-02-21T05:18:16.595Z,46.25
2023-02-21T05:19:20.703Z,46.23
2023-02-21T05:20:24.797Z,46.21
2023-02-21T05:21:28.944Z,46.33
2023-02-21T05:22:33.015Z,46.34
2023-02-21T05:23:37.126Z,46.41
2023-02-21T05:24:41.251Z,46.38
2023-02-21T05:25:45.376Z,46.44
2023-02-21T05:26:49.505Z,46.4
2023-02-21T05:27:53.602Z,46.48
2023-02-21T05:28:57.756Z,46.48
2023-02-21T05:30:02.077Z,46.55
2023-02-21T05:31:06.834Z,46.56
2023-02-21T05:32:11.340Z,46.55
2023-02-21T05:33:15.548Z,46.55
2023-02-21T05:34:19.659Z,46.58
2023-02-21T05:35:23.797Z,46.51
2023-02-21T05:36:27.914Z,46.51
2023-02-21T05:37:33.332Z,46.53
2023-02-21T05:38:37.491Z,46.52
2023-02-21T05:39:41.623Z,46.49
2023-02-21T05:40:45.742Z,46.46
2023-02-21T05:41:49.874Z,46.45
2023-02-21T05:42:53.975Z,46.49
2023-02-21T05:43:58.066Z,46.48
2023-02-21T05:45:02.269Z,46.53
2023-02-21T05:46:06.589Z,46.56
2023-02-21T05:47:10.701Z,46.54
2023-02-21T05:48:14.810Z,46.76
2023-02-21T05:49:18.907Z,47.09
2023-02-21T05:50:23.021Z,47.04
2023-02-21T05:51:27.223Z,47.15
2023-02-21T05:52:31.377Z,47.11
2023-02-21T05:53:35.509Z,47.12
2023-02-21T05:54:39.629Z,47.35
2023-02-21T05:55:43.751Z,47.69
2023-02-21T05:56:47.926Z,47.43
2023-02-21T05:57:52.079Z,47.35
2023-02-21T05:58:56.235Z,47.33
2023-02-21T06:00:00.335Z,47.77
2023-02-21T06:01:04.421Z,47.88
2023-02-21T06:02:08.720Z,47.6
2023-02-21T06:03:13.061Z,47.56
2023-02-21T06:04:17.218Z,47.53
2023-02-21T06:05:21.339Z,47.6
2023-02-21T06:06:25.454Z,47.42
2023-02-21T06:07:29.591Z,47.46
2023-02-21T06:08:33.733Z,47.51
2023-02-21T06:09:37.861Z,47.5
2023-02-21T06:10:41.982Z,47.48
2023-02-21T06:11:46.084Z,47.47
2023-02-21T06:12:50.221Z,47.48
2023-02-21T06:13:54.378Z,47.5
2023-02-21T06:14:58.875Z,47.5
2023-02-21T06:16:03.139Z,47.51
2023-02-21T06:17:07.267Z,47.44
2023-02-21T06:18:11.413Z,47.39
2023-02-21T06:19:15.523Z,47.42
2023-02-21T06:20:19.675Z,47.41
2023-02-21T06:21:23.794Z,47.4
2023-02-21T06:22:27.872Z,47.38
2023-02-21T06:23:31.976Z,47.35
2023-02-21T06:24:36.084Z,47.34
2023-02-21T06:25:40.193Z,47.3
2023-02-21T06:26:44.373Z,47.27
2023-02-21T06:27:48.459Z,47.25
2023-02-21T06:28:52.591Z,47.23
2023-02-21T06:29:56.723Z,47.24
2023-02-21T06:31:01.044Z,47.26
2023-02-21T06:32:05.310Z,47.25
2023-02-21T06:33:09.457Z,47.28
2023-02-21T06:34:13.592Z,47.24
2023-02-21T06:35:17.689Z,47.21
2023-02-21T06:36:21.786Z,47.19
2023-02-21T06:37:25.896Z,47.21
2023-02-21T06:38:30.019Z,47.17
2023-02-21T06:39:34.137Z,47.16
2023-02-21T06:40:38.236Z,47.09
2023-02-21T06:41:42.347Z,47.08
2023-02-21T06:42:46.486Z,47.08
2023-02-21T06:43:50.624Z,47.03
2023-02-21T06:44:54.799Z,47.02
2023-02-21T06:45:59.008Z,47.02
2023-02-21T06:47:03.173Z,46.99
2023-02-21T06:48:07.290Z,46.97
2023-02-21T06:49:11.399Z,46.94
2023-02-21T06:50:15.568Z,46.94
2023-02-21T06:51:19.716Z,46.89
2023-02-21T06:52:23.800Z,46.92
2023-02-21T06:53:27.949Z,46.95
2023-02-21T06:54:32.064Z,46.88
2023-02-21T06:55:36.404Z,46.83
2023-02-21T06:56:40.513Z,46.84
2023-02-21T06:57:44.640Z,46.89
2023-02-21T06:58:48.756Z,46.89
2023-02-21T06:59:52.884Z,46.9
2023-02-21T07:00:59.639Z,46.96
2023-02-21T07:02:03.804Z,46.88
2023-02-21T07:03:07.920Z,46.82
2023-02-21T07:04:12.021Z,46.79
2023-02-21T07:05:16.155Z,46.84
2023-02-21T07:06:20.266Z,46.79
2023-02-21T07:07:24.372Z,46.77
2023-02-21T07:08:28.515Z,46.76
2023-02-21T07:09:32.612Z,46.75
2023-02-21T07:10:36.741Z,46.7
2023-02-21T07:11:40.857Z,46.74
2023-02-21T07:12:44.977Z,46.75
2023-02-21T07:13:49.096Z,46.79
2023-02-21T07:14:53.180Z,46.78
2023-02-21T07:15:57.449Z,46.78
2023-02-21T07:17:01.851Z,46.73
2023-02-21T07:18:05.946Z,46.71
2023-02-21T07:19:10.089Z,46.66
2023-02-21T07:20:14.167Z,46.64
2023-02-21T07:21:18.974Z,46.67
2023-02-21T07:22:23.139Z,46.7
2023-02-21T07:23:27.292Z,46.7
2023-02-21T07:24:31.434Z,46.69
2023-02-21T07:25:35.554Z,46.69
2023-02-21T07:26:39.710Z,46.65
2023-02-21T07:27:43.809Z,46.62
2023-02-21T07:28:48.138Z,46.64
2023-02-21T07:29:52.307Z,46.65
2023-02-21T07:30:56.520Z,46.63
2023-02-21T07:32:00.988Z,46.62
2023-02-21T07:33:05.138Z,46.59
2023-02-21T07:34:09.272Z,46.63
2023-02-21T07:35:13.373Z,46.67
2023-02-21T07:36:17.500Z,46.65
2023-02-21T07:37:21.595Z,46.65
2023-02-21T07:38:25.783Z,46.71
2023-02-21T07:39:29.887Z,46.72
2023-02-21T07:40:34.026Z,46.65
2023-02-21T07:41:38.118Z,46.62
2023-02-21T07:42:42.258Z,46.72
2023-02-21T07:43:46.391Z,46.58
2023-02-21T07:44:50.492Z,46.54
2023-02-21T07:45:54.672Z,46.54
2023-02-21T07:46:58.774Z,46.54
2023-02-21T07:48:02.877Z,46.47
2023-02-21T07:49:06.985Z,46.52
2023-02-21T07:50:11.103Z,46.5
2023-02-21T07:51:16.470Z,46.73
2023-02-21T07:52:20.697Z,46.62
2023-02-21T07:53:24.812Z,46.59
2023-02-21T07:54:28.948Z,46.66
2023-02-21T07:55:33.108Z,46.77
2023-02-21T07:56:37.246Z,46.76
2023-02-21T07:57:41.361Z,46.68
2023-02-21T07:58:45.479Z,46.67
2023-02-21T07:59:49.588Z,46.71
2023-02-21T08:00:53.694Z,46.78
2023-02-21T08:01:57.928Z,46.9
2023-02-21T08:03:02.032Z,46.8
2023-02-21T08:04:06.622Z,46.81
2023-02-21T08:05:11.008Z,46.88
2023-02-21T08:06:15.162Z,46.79
2023-02-21T08:07:19.339Z,46.93
2023-02-21T08:08:23.498Z,46.91
2023-02-21T08:09:27.609Z,46.86
2023-02-21T08:10:31.761Z,46.84
2023-02-21T08:11:35.919Z,47.01
2023-02-21T08:12:40.065Z,46.93
2023-02-21T08:13:44.244Z,46.91
2023-02-21T08:14:48.396Z,46.81
2023-02-21T08:15:52.650Z,46.79
2023-02-21T08:16:56.789Z,46.81
2023-02-21T08:18:00.941Z,46.71
2023-02-21T08:19:05.043Z,46.72
2023-02-21T08:20:09.147Z,46.66
2023-02-21T08:21:13.880Z,46.69
2023-02-21T08:22:18.314Z,46.67
2023-02-21T08:23:22.418Z,46.58
2023-02-21T08:24:26.526Z,46.64
2023-02-21T08:25:30.662Z,46.57
2023-02-21T08:26:34.823Z,46.59
2023-02-21T08:27:38.918Z,46.62
2023-02-21T08:28:43.010Z,46.59
2023-02-21T08:29:47.137Z,46.59
2023-02-21T08:30:51.233Z,46.52
2023-02-21T08:31:55.635Z,46.51
2023-02-21T08:32:59.742Z,46.54
2023-02-21T08:34:03.818Z,46.49
2023-02-21T08:35:07.937Z,46.48
2023-02-21T08:36:12.110Z,46.46
2023-02-21T08:37:16.276Z,46.53
2023-02-21T08:38:20.409Z,46.5
2023-02-21T08:39:24.553Z,46.56
2023-02-21T08:40:28.678Z,46.52
2023-02-21T08:41:32.770Z,46.45
2023-02-21T08:42:36.889Z,46.48
2023-02-21T08:43:40.976Z,46.43
2023-02-21T08:44:45.087Z,46.44
2023-02-21T08:45:49.212Z,46.48
2023-02-21T08:46:53.527Z,46.56
2023-02-21T08:47:57.948Z,46.56
2023-02-21T08:49:02.074Z,46.52
2023-02-21T08:50:06.206Z,46.44
2023-02-21T08:51:10.326Z,46.45
2023-02-21T08:52:14.423Z,46.43
2023-02-21T08:53:18.532Z,46.43
2023-02-21T08:54:22.644Z,46.41
2023-02-21T08:55:26.781Z,46.38
2023-02-21T08:56:30.957Z,46.44
2023-02-21T08:57:35.117Z,46.39
2023-02-21T08:58:40.138Z,46.34
2023-02-21T08:59:44.309Z,46.37
2023-02-21T09:00:48.745Z,46.41
2023-02-21T09:01:52.914Z,46.41
2023-02-21T09:02:57.002Z,46.41
2023-02-21T09:04:01.175Z,46.36
2023-02-21T09:05:05.286Z,46.38
2023-02-21T09:06:09.401Z,46.44
2023-02-21T09:07:13.556Z,46.37
2023-02-21T09:08:17.679Z,46.56
2023-02-21T09:09:21.791Z,46.38
2023-02-21T09:10:25.983Z,46.4
2023-02-21T09:11:30.134Z,46.44
2023-02-21T09:12:34.239Z,46.66
2023-02-21T09:13:38.376Z,46.46
2023-02-21T09:14:42.526Z,46.57
2023-02-21T09:15:46.626Z,46.51
2023-02-21T09:16:51.062Z,46.48
2023-02-21T09:17:55.277Z,46.56
2023-02-21T09:18:59.419Z,46.59
2023-02-21T09:20:03.577Z,46.68
2023-02-21T09:21:07.680Z,46.63
2023-02-21T09:22:11.821Z,46.75
2023-02-21T09:23:15.914Z,46.83
2023-02-21T09:24:20.054Z,46.86
2023-02-21T09:25:24.265Z,46.83
2023-02-21T09:26:28.394Z,46.86
2023-02-21T09:27:32.532Z,46.87
2023-02-21T09:28:36.647Z,46.76
2023-02-21T09:29:48.547Z,46.83
2023-02-21T09:30:52.707Z,46.79
2023-02-21T09:31:57.382Z,46.76
2023-02-21T09:33:01.536Z,46.79
2023-02-21T09:34:05.697Z,46.79
2023-02-21T09:35:09.837Z,46.69
2023-02-21T09:36:13.992Z,46.65
2023-02-21T09:37:18.120Z,46.74
2023-02-21T09:38:22.242Z,46.79
2023-02-21T09:39:26.384Z,46.67
2023-02-21T09:40:30.523Z,46.88
2023-02-21T09:41:34.699Z,46.93
2023-02-21T09:42:38.823Z,46.85
2023-02-21T09:43:42.926Z,46.79
2023-02-21T09:44:47.093Z,46.94
2023-02-21T09:45:51.280Z,46.86
2023-02-21T09:46:55.436Z,46.98
2023-02-21T09:47:59.552Z,46.9
2023-02-21T09:49:03.670Z,46.89
2023-02-21T09:50:07.841Z,46.8
2023-02-21T09:51:11.928Z,46.94
2023-02-21T09:52:16.052Z,46.91
2023-02-21T09:53:20.203Z,47.03
2023-02-21T09:54:24.307Z,47.07
2023-02-21T09:55:31.824Z,47.03
2023-02-21T09:56:36.002Z,47.09
2023-02-21T09:57:40.105Z,47.07
2023-02-21T09:58:44.187Z,47.12
2023-02-21T09:59:48.284Z,47.21
2023-02-21T10:00:52.589Z,47.12
2023-02-21T10:01:56.755Z,47.1
2023-02-21T10:03:00.955Z,47.12
2023-02-21T10:04:05.095Z,47.16
2023-02-21T10:05:09.234Z,47.16
2023-02-21T10:06:13.351Z,47.13
2023-02-21T10:07:17.541Z,47.12
2023-02-21T10:08:21.631Z,47.13
2023-02-21T10:09:25.720Z,47.19
2023-02-21T10:10:29.811Z,47.28
2023-02-21T10:11:33.923Z,47.24
2023-02-21T10:12:38.031Z,47.28
2023-02-21T10:13:42.162Z,47.29
2023-02-21T10:14:46.291Z,47.37
2023-02-21T10:15:50.390Z,47.38
2023-02-21T10:16:54.880Z,47.37
2023-02-21T10:17:59.000Z,47.36
2023-02-21T10:19:03.079Z,47.42
2023-02-21T10:20:07.232Z,47.43
2023-02-21T10:21:11.356Z,47.37
2023-02-21T10:22:15.627Z,47.42
2023-02-21T10:23:20.059Z,47.33
2023-02-21T10:24:24.209Z,47.37
2023-02-21T10:25:28.330Z,47.41
2023-02-21T10:26:32.449Z,47.36
2023-02-21T10:27:36.557Z,47.31
2023-02-21T10:28:40.666Z,47.43
2023-02-21T10:29:45.125Z,47.46
2023-02-21T10:30:49.713Z,47.57
2023-02-21T10:31:54.046Z,47.61
2023-02-21T10:32:58.216Z,47.76
2023-02-21T10:34:02.384Z,47.81
2023-02-21T10:35:06.515Z,47.87
2023-02-21T10:36:10.629Z,47.83
2023-02-21T10:37:14.894Z,47.92
2023-02-21T10:38:19.111Z,47.96
2023-02-21T10:39:23.212Z,47.79
2023-02-21T10:40:27.349Z,47.58
2023-02-21T10:41:31.469Z,47.48
2023-02-21T10:42:35.601Z,47.38
2023-02-21T10:43:39.723Z,47.42
2023-02-21T10:44:43.853Z,47.48
2023-02-21T10:45:49.101Z,47.49
2023-02-21T10:46:53.281Z,47.58
2023-02-21T10:47:57.441Z,47.49
2023-02-21T10:49:01.627Z,47.53
2023-02-21T10:50:05.767Z,47.4
2023-02-21T10:51:10.001Z,47.36
2023-02-21T10:52:14.138Z,47.29
2023-02-21T10:53:18.412Z,47.33
2023-02-21T10:54:22.589Z,47.22
2023-02-21T10:55:34.986Z,47.28
2023-02-21T10:56:39.132Z,47.33
2023-02-21T10:57:43.225Z,47.36
2023-02-21T10:58:47.346Z,47.31
2023-02-21T10:59:52.660Z,47.42
2023-02-21T11:00:56.891Z,47.39
2023-02-21T11:02:01.100Z,47.39
2023-02-21T11:03:05.313Z,47.51
2023-02-21T11:04:09.477Z,47.52
2023-02-21T11:05:13.618Z,47.53
2023-02-21T11:06:17.764Z,47.71
2023-02-21T11:07:21.887Z,47.69
2023-02-21T11:08:25.976Z,47.68
2023-02-21T11:09:30.125Z,47.73
2023-02-21T11:10:34.389Z,47.77
2023-02-21T11:11:39.564Z,47.79
2023-02-21T11:12:43.723Z,47.87
2023-02-21T11:13:47.840Z,47.92
2023-02-21T11:14:52.120Z,47.92
2023-02-21T11:15:56.397Z,47.96
2023-02-21T11:17:00.525Z,47.93
2023-02-21T11:18:04.644Z,48.03
2023-02-21T11:19:08.781Z,48.03
2023-02-21T11:20:12.896Z,47.98
2023-02-21T11:21:17.908Z,47.97
2023-02-21T11:22:22.065Z,48.04
2023-02-21T11:23:26.183Z,47.96
2023-02-21T11:24:30.292Z,47.84
2023-02-21T11:25:34.398Z,47.88
2023-02-21T11:26:38.595Z,47.73
2023-02-21T11:27:44.076Z,47.71
2023-02-21T11:28:49.126Z,47.65
2023-02-21T11:29:53.205Z,47.63
2023-02-21T11:30:57.467Z,47.6
2023-02-21T11:32:01.663Z,47.54
2023-02-21T11:33:05.816Z,47.53
2023-02-21T11:34:09.922Z,47.5
2023-02-21T11:35:14.004Z,47.48
2023-02-21T11:36:18.131Z,47.5
2023-02-21T11:37:22.241Z,47.47
2023-02-21T11:38:29.319Z,47.57
2023-02-21T11:39:33.442Z,47.56
2023-02-21T11:40:37.603Z,47.55
2023-02-21T11:41:41.715Z,47.56
2023-02-21T11:42:46.077Z,47.63
2023-02-21T11:43:50.170Z,47.61
2023-02-21T11:44:54.284Z,47.63
2023-02-21T11:45:58.458Z,47.57
2023-02-21T11:47:02.584Z,47.59
2023-02-21T11:48:06.697Z,47.67
2023-02-21T11:49:10.830Z,47.62
2023-02-21T11:50:14.996Z,47.56
2023-02-21T11:51:19.340Z,47.5
2023-02-21T11:52:23.460Z,47.42
2023-02-21T11:53:27.608Z,47.39
2023-02-21T11:54:31.744Z,47.3
2023-02-21T11:55:35.871Z,47.3
2023-02-21T11:56:39.962Z,47.23
2023-02-21T11:57:44.066Z,47.22
2023-02-21T11:58:48.183Z,47.17
2023-02-21T11:59:52.336Z,47.19
2023-02-21T12:00:56.436Z,47.21
2023-02-21T12:02:00.552Z,47.23
2023-02-21T12:03:04.696Z,47.26
2023-02-21T12:04:08.776Z,47.21
2023-02-21T12:05:12.876Z,47.25
2023-02-21T12:06:17.186Z,47.21
2023-02-21T12:07:21.317Z,47.3
2023-02-21T12:08:25.425Z,47.29
2023-02-21T12:09:29.620Z,47.27
2023-02-21T12:10:33.737Z,47.3
2023-02-21T12:11:37.978Z,47.28
2023-02-21T12:12:42.099Z,47.33
2023-02-21T12:13:46.209Z,47.31
2023-02-21T12:14:50.307Z,47.28
2023-02-21T12:15:54.528Z,47.24
2023-02-21T12:16:58.750Z,47.19
2023-02-21T12:18:02.835Z,47.08
2023-02-21T12:19:06.928Z,47.04
2023-02-21T12:20:11.039Z,47.02
2023-02-21T12:21:16.460Z,47
2023-02-21T12:22:20.718Z,46.98
2023-02-21T12:23:25.026Z,46.98
2023-02-21T12:24:29.312Z,46.96
2023-02-21T12:25:33.487Z,46.98
2023-02-21T12:26:37.618Z,47
2023-02-21T12:27:41.735Z,47.04
2023-02-21T12:28:45.837Z,47.03
2023-02-21T12:29:49.973Z,47.03
2023-02-21T12:30:54.170Z,47.05
2023-02-21T12:31:58.722Z,47.06
2023-02-21T12:33:02.827Z,47.07
2023-02-21T12:34:06.934Z,47.07
2023-02-21T12:35:11.042Z,47.06
2023-02-21T12:36:15.168Z,47.07
2023-02-21T12:37:19.274Z,47.06
2023-02-21T12:38:23.429Z,47.03
2023-02-21T12:39:29.615Z,47.02
2023-02-21T12:40:33.752Z,46.94
2023-02-21T12:41:37.846Z,46.89
2023-02-21T12:42:41.960Z,46.81
2023-02-21T12:43:46.061Z,46.78
2023-02-21T12:44:50.130Z,46.77
2023-02-21T12:45:54.255Z,46.79
2023-02-21T12:46:58.412Z,46.79
2023-02-21T12:48:02.575Z,46.77
2023-02-21T12:49:06.713Z,46.78
2023-02-21T12:50:10.894Z,46.79
2023-02-21T12:51:16.101Z,46.79
2023-02-21T12:52:20.377Z,46.81
2023-02-21T12:53:24.973Z,46.84
2023-02-21T12:54:29.214Z,46.84
2023-02-21T12:55:33.306Z,46.83
2023-02-21T12:56:37.398Z,46.81
2023-02-21T12:57:41.611Z,46.83
2023-02-21T12:58:45.726Z,46.87
2023-02-21T12:59:49.912Z,46.88
2023-02-21T13:00:54.085Z,46.92
2023-02-21T13:01:58.373Z,46.92
2023-02-21T13:03:02.836Z,46.89
2023-02-21T13:04:06.991Z,46.83
2023-02-21T13:05:11.303Z,46.77
2023-02-21T13:06:15.464Z,46.72
2023-02-21T13:07:19.576Z,46.69
2023-02-21T13:08:23.662Z,46.6
2023-02-21T13:09:27.789Z,46.54
2023-02-21T13:10:31.905Z,46.51
2023-02-21T13:11:36.077Z,46.5
2023-02-21T13:12:40.412Z,46.49
2023-02-21T13:13:44.566Z,46.48
2023-02-21T13:14:48.679Z,46.53
2023-02-21T13:15:52.845Z,46.55
2023-02-21T13:16:57.037Z,46.56
2023-02-21T13:18:01.142Z,46.57
2023-02-21T13:19:05.256Z,46.59
2023-02-21T13:20:09.546Z,46.58
2023-02-21T13:21:14.408Z,46.58
2023-02-21T13:22:18.695Z,46.58
2023-02-21T13:23:22.844Z,46.6
2023-02-21T13:24:26.952Z,46.58
2023-02-21T13:25:31.043Z,46.64
2023-02-21T13:26:35.141Z,46.65
2023-02-21T13:27:39.346Z,46.64
2023-02-21T13:28:43.462Z,46.7
2023-02-21T13:29:47.601Z,46.72
2023-02-21T13:30:52.017Z,46.65
2023-02-21T13:31:56.420Z,46.59
2023-02-21T13:33:00.595Z,46.58
2023-02-21T13:34:04.720Z,46.54
2023-02-21T13:35:08.808Z,46.52
2023-02-21T13:36:12.886Z,46.52
2023-02-21T13:37:17.016Z,46.49
2023-02-21T13:38:21.126Z,46.45
2023-02-21T13:39:25.484Z,46.41
2023-02-21T13:40:29.950Z,46.4
2023-02-21T13:41:34.111Z,46.43
2023-02-21T13:42:38.225Z,46.45
2023-02-21T13:43:42.346Z,46.46
2023-02-21T13:44:46.463Z,46.44
2023-02-21T13:45:50.563Z,46.44
2023-02-21T13:46:54.863Z,46.47
2023-02-21T13:47:59.057Z,46.47
2023-02-21T13:49:03.203Z,46.47
2023-02-21T13:50:07.332Z,46.46